sensor_id;sensor_type;location;lat;lon;timestamp;temperature;humidity
25436;DHT22;13363;52.772;-3.890;2023-02-11T00:00:07;11.30;99.90
25436;DHT22;13363;52.772;-3.890;2023-02-11T00:02:34;11.30;99.90
25436;DHT22;13363;52.772;-3.890;2023-02-11T00:05:01;11.30;99.90
25436;DHT22;13363;52.772;-3.890;2023-02-11T00:07:31;11.20;99.90
25436;DHT22;13363;52.772;-3.890;2023-02-11T00:09:57;11.20;99.90
25436;DHT22;13363;52.772;-3.890;2023-02-11T00:12:23;11.20;99.90
25436;DHT22;13363;52.772;-3.890;2023-02-11T00:14:50;11.20;99.90
25436;DHT22;13363;52.772;-3.890;2023-02-11T00:17:16;11.20;99.90
25436;DHT22;13363;52.772;-3.890;2023-02-11T00:19:42;11.20;99.90
25436;DHT22;13363;52.772;-3.890;2023-02-11T00:22:08;11.10;99.90
25436;DHT22;13363;52.772;-3.890;2023-02-11T00:24:35;11.20;99.90
25436;DHT22;13363;52.772;-3.890;2023-02-11T00:27:01;11.20;99.90
25436;DHT22;13363;52.772;-3.890;2023-02-11T00:29:27;11.20;99.90
25436;DHT22;13363;52.772;-3.890;2023-02-11T00:31:53;11.20;99.90
25436;DHT22;13363;52.772;-3.890;2023-02-11T00:34:18;11.10;99.90
25436;DHT22;13363;52.772;-3.890;2023-02-11T00:36:44;11.10;99.90
25436;DHT22;13363;52.772;-3.890;2023-02-11T00:39:10;11.00;99.90
25436;DHT22;13363;52.772;-3.890;2023-02-11T00:41:36;11.00;99.90
25436;DHT22;13363;52.772;-3.890;2023-02-11T00:44:02;10.90;99.90
25436;DHT22;13363;52.772;-3.890;2023-02-11T00:46:28;10.80;99.90
25436;DHT22;13363;52.772;-3.890;2023-02-11T00:48:54;10.80;99.90
25436;DHT22;13363;52.772;-3.890;2023-02-11T00:51:23;10.80;99.90
25436;DHT22;13363;52.772;-3.890;2023-02-11T00:53:49;10.90;99.90
25436;DHT22;13363;52.772;-3.890;2023-02-11T00:56:15;10.90;99.90
25436;DHT22;13363;52.772;-3.890;2023-02-11T00:58:41;10.90;99.90
25436;DHT22;13363;52.772;-3.890;2023-02-11T01:01:07;10.80;99.90
25436;DHT22;13363;52.772;-3.890;2023-02-11T01:03:33;10.80;99.90
25436;DHT22;13363;52.772;-3.890;2023-02-11T01:05:59;10.80;99.90
25436;DHT22;13363;52.772;-3.890;2023-02-11T01:08:26;10.80;99.90
25436;DHT22;13363;52.772;-3.890;2023-02-11T01:10:56;10.80;99.90
25436;DHT22;13363;52.772;-3.890;2023-02-11T01:13:23;10.80;99.90
25436;DHT22;13363;52.772;-3.890;2023-02-11T01:15:49;10.80;99.90
25436;DHT22;13363;52.772;-3.890;2023-02-11T01:18:15;10.70;99.90
25436;DHT22;13363;52.772;-3.890;2023-02-11T01:20:41;10.60;99.90
25436;DHT22;13363;52.772;-3.890;2023-02-11T01:23:07;10.60;99.90
25436;DHT22;13363;52.772;-3.890;2023-02-11T01:25:33;10.60;99.90
25436;DHT22;13363;52.772;-3.890;2023-02-11T01:27:59;10.80;99.90
25436;DHT22;13363;52.772;-3.890;2023-02-11T01:30:24;10.80;99.90
25436;DHT22;13363;52.772;-3.890;2023-02-11T01:32:50;10.60;99.90
25436;DHT22;13363;52.772;-3.890;2023-02-11T01:35:16;10.60;99.90
25436;DHT22;13363;52.772;-3.890;2023-02-11T01:37:42;10.50;99.90
25436;DHT22;13363;52.772;-3.890;2023-02-11T01:40:15;10.50;99.90
25436;DHT22;13363;52.772;-3.890;2023-02-11T01:42:41;10.40;99.90
25436;DHT22;13363;52.772;-3.890;2023-02-11T01:48:17;10.60;99.90
25436;DHT22;13363;52.772;-3.890;2023-02-11T01:50:46;10.60;99.90
25436;DHT22;13363;52.772;-3.890;2023-02-11T01:53:14;10.60;99.90
25436;DHT22;13363;52.772;-3.890;2023-02-11T01:55:59;10.50;99.90
25436;DHT22;13363;52.772;-3.890;2023-02-11T01:58:44;10.40;99.90
25436;DHT22;13363;52.772;-3.890;2023-02-11T02:01:15;10.30;99.90
25436;DHT22;13363;52.772;-3.890;2023-02-11T02:03:45;10.30;99.90
25436;DHT22;13363;52.772;-3.890;2023-02-11T02:06:45;10.40;99.90
25436;DHT22;13363;52.772;-3.890;2023-02-11T02:09:21;10.50;99.90
25436;DHT22;13363;52.772;-3.890;2023-02-11T02:11:48;10.40;99.90
25436;DHT22;13363;52.772;-3.890;2023-02-11T02:14:14;10.40;99.90
25436;DHT22;13363;52.772;-3.890;2023-02-11T02:16:40;10.30;99.90
25436;DHT22;13363;52.772;-3.890;2023-02-11T02:19:31;10.20;99.90
25436;DHT22;13363;52.772;-3.890;2023-02-11T02:34:01;10.00;99.90
25436;DHT22;13363;52.772;-3.890;2023-02-11T02:37:03;9.90;99.90
25436;DHT22;13363;52.772;-3.890;2023-02-11T02:39:31;9.80;99.90
25436;DHT22;13363;52.772;-3.890;2023-02-11T02:41:58;9.80;99.90
25436;DHT22;13363;52.772;-3.890;2023-02-11T02:44:24;9.80;99.90
25436;DHT22;13363;52.772;-3.890;2023-02-11T02:49:16;9.70;99.90
25436;DHT22;13363;52.772;-3.890;2023-02-11T02:51:49;9.80;99.90
25436;DHT22;13363;52.772;-3.890;2023-02-11T03:00:40;9.90;99.90
25436;DHT22;13363;52.772;-3.890;2023-02-11T03:06:08;9.80;99.90
25436;DHT22;13363;52.772;-3.890;2023-02-11T03:09:28;9.80;99.90
25436;DHT22;13363;52.772;-3.890;2023-02-11T03:11:28;9.80;99.90
25436;DHT22;13363;52.772;-3.890;2023-02-11T03:13:55;9.80;99.90
25436;DHT22;13363;52.772;-3.890;2023-02-11T03:16:24;9.80;99.90
25436;DHT22;13363;52.772;-3.890;2023-02-11T03:19:05;9.80;99.90
25436;DHT22;13363;52.772;-3.890;2023-02-11T03:21:34;9.80;99.90
25436;DHT22;13363;52.772;-3.890;2023-02-11T03:24:06;9.80;99.90
25436;DHT22;13363;52.772;-3.890;2023-02-11T03:26:56;9.80;99.90
25436;DHT22;13363;52.772;-3.890;2023-02-11T03:32:09;9.80;99.90
25436;DHT22;13363;52.772;-3.890;2023-02-11T03:34:59;9.80;99.90
25436;DHT22;13363;52.772;-3.890;2023-02-11T03:40:02;9.80;99.90
25436;DHT22;13363;52.772;-3.890;2023-02-11T03:42:52;9.80;99.90
25436;DHT22;13363;52.772;-3.890;2023-02-11T03:45:21;9.80;99.90
25436;DHT22;13363;52.772;-3.890;2023-02-11T03:47:59;9.80;99.90
25436;DHT22;13363;52.772;-3.890;2023-02-11T03:50:27;9.80;99.90
25436;DHT22;13363;52.772;-3.890;2023-02-11T03:52:56;9.80;99.90
25436;DHT22;13363;52.772;-3.890;2023-02-11T03:55:24;9.80;99.90
25436;DHT22;13363;52.772;-3.890;2023-02-11T03:57:51;9.80;99.90
25436;DHT22;13363;52.772;-3.890;2023-02-11T04:00:18;9.80;99.90
25436;DHT22;13363;52.772;-3.890;2023-02-11T04:02:44;9.80;99.90
25436;DHT22;13363;52.772;-3.890;2023-02-11T04:05:13;9.80;99.90
25436;DHT22;13363;52.772;-3.890;2023-02-11T04:07:40;9.80;99.90
25436;DHT22;13363;52.772;-3.890;2023-02-11T04:10:06;9.80;99.90
25436;DHT22;13363;52.772;-3.890;2023-02-11T04:12:32;9.80;99.90
25436;DHT22;13363;52.772;-3.890;2023-02-11T04:14:58;9.80;99.90
25436;DHT22;13363;52.772;-3.890;2023-02-11T04:17:24;9.70;99.90
25436;DHT22;13363;52.772;-3.890;2023-02-11T04:19:50;9.80;99.90
25436;DHT22;13363;52.772;-3.890;2023-02-11T04:22:15;9.80;99.90
25436;DHT22;13363;52.772;-3.890;2023-02-11T04:24:41;9.80;99.90
25436;DHT22;13363;52.772;-3.890;2023-02-11T04:27:08;9.80;99.90
25436;DHT22;13363;52.772;-3.890;2023-02-11T04:29:34;9.80;99.90
25436;DHT22;13363;52.772;-3.890;2023-02-11T04:32:00;9.80;99.90
25436;DHT22;13363;52.772;-3.890;2023-02-11T04:34:26;9.80;99.90
25436;DHT22;13363;52.772;-3.890;2023-02-11T04:36:52;9.80;99.90
25436;DHT22;13363;52.772;-3.890;2023-02-11T04:39:18;9.80;99.90
25436;DHT22;13363;52.772;-3.890;2023-02-11T04:41:44;9.80;99.90
25436;DHT22;13363;52.772;-3.890;2023-02-11T04:44:09;10.00;99.90
25436;DHT22;13363;52.772;-3.890;2023-02-11T04:46:35;10.00;99.90
25436;DHT22;13363;52.772;-3.890;2023-02-11T04:49:01;10.00;99.90
25436;DHT22;13363;52.772;-3.890;2023-02-11T04:51:27;9.90;99.90
25436;DHT22;13363;52.772;-3.890;2023-02-11T04:53:53;9.90;99.90
25436;DHT22;13363;52.772;-3.890;2023-02-11T04:56:19;9.80;99.90
25436;DHT22;13363;52.772;-3.890;2023-02-11T04:58:45;9.90;99.90
25436;DHT22;13363;52.772;-3.890;2023-02-11T05:01:13;9.90;99.90
25436;DHT22;13363;52.772;-3.890;2023-02-11T05:03:40;10.00;99.90
25436;DHT22;13363;52.772;-3.890;2023-02-11T05:06:06;10.00;99.90
25436;DHT22;13363;52.772;-3.890;2023-02-11T05:08:32;9.90;99.90
25436;DHT22;13363;52.772;-3.890;2023-02-11T05:10:58;9.90;99.90
25436;DHT22;13363;52.772;-3.890;2023-02-11T05:13:27;10.00;99.90
25436;DHT22;13363;52.772;-3.890;2023-02-11T05:15:53;10.00;99.90
25436;DHT22;13363;52.772;-3.890;2023-02-11T05:18:18;10.00;99.90
25436;DHT22;13363;52.772;-3.890;2023-02-11T05:20:44;9.90;99.90
25436;DHT22;13363;52.772;-3.890;2023-02-11T05:23:11;9.90;99.90
25436;DHT22;13363;52.772;-3.890;2023-02-11T05:25:37;9.90;99.90
25436;DHT22;13363;52.772;-3.890;2023-02-11T05:28:04;9.80;99.90
25436;DHT22;13363;52.772;-3.890;2023-02-11T05:30:30;9.80;99.90
25436;DHT22;13363;52.772;-3.890;2023-02-11T05:32:57;9.80;99.90
25436;DHT22;13363;52.772;-3.890;2023-02-11T05:35:23;9.80;99.90
25436;DHT22;13363;52.772;-3.890;2023-02-11T05:37:49;9.80;99.90
25436;DHT22;13363;52.772;-3.890;2023-02-11T05:40:15;9.80;99.90
25436;DHT22;13363;52.772;-3.890;2023-02-11T05:42:40;9.70;99.90
25436;DHT22;13363;52.772;-3.890;2023-02-11T05:45:07;9.70;99.90
25436;DHT22;13363;52.772;-3.890;2023-02-11T05:47:32;9.70;99.90
25436;DHT22;13363;52.772;-3.890;2023-02-11T05:49:58;9.70;99.90
25436;DHT22;13363;52.772;-3.890;2023-02-11T05:52:24;9.70;99.90
25436;DHT22;13363;52.772;-3.890;2023-02-11T05:54:50;9.70;99.90
25436;DHT22;13363;52.772;-3.890;2023-02-11T05:57:16;9.70;99.90
25436;DHT22;13363;52.772;-3.890;2023-02-11T05:59:42;9.70;99.90
25436;DHT22;13363;52.772;-3.890;2023-02-11T06:02:08;9.70;99.90
25436;DHT22;13363;52.772;-3.890;2023-02-11T06:04:35;9.70;99.90
25436;DHT22;13363;52.772;-3.890;2023-02-11T06:07:02;9.80;99.90
25436;DHT22;13363;52.772;-3.890;2023-02-11T06:09:28;9.80;99.90
25436;DHT22;13363;52.772;-3.890;2023-02-11T06:11:53;9.80;99.90
25436;DHT22;13363;52.772;-3.890;2023-02-11T06:14:19;9.80;99.90
25436;DHT22;13363;52.772;-3.890;2023-02-11T06:16:45;9.70;99.90
25436;DHT22;13363;52.772;-3.890;2023-02-11T06:19:11;9.70;99.90
25436;DHT22;13363;52.772;-3.890;2023-02-11T06:21:38;9.70;99.90
25436;DHT22;13363;52.772;-3.890;2023-02-11T06:24:05;9.70;99.90
25436;DHT22;13363;52.772;-3.890;2023-02-11T06:26:30;9.70;99.90
25436;DHT22;13363;52.772;-3.890;2023-02-11T06:28:59;9.70;99.90
25436;DHT22;13363;52.772;-3.890;2023-02-11T06:31:25;9.70;99.90
25436;DHT22;13363;52.772;-3.890;2023-02-11T06:33:51;9.80;99.90
25436;DHT22;13363;52.772;-3.890;2023-02-11T06:36:21;9.80;99.90
25436;DHT22;13363;52.772;-3.890;2023-02-11T06:38:47;9.80;99.90
25436;DHT22;13363;52.772;-3.890;2023-02-11T06:41:15;9.80;99.90
25436;DHT22;13363;52.772;-3.890;2023-02-11T06:43:42;9.80;99.90
25436;DHT22;13363;52.772;-3.890;2023-02-11T06:46:08;9.80;99.90
25436;DHT22;13363;52.772;-3.890;2023-02-11T06:48:35;9.80;99.90
25436;DHT22;13363;52.772;-3.890;2023-02-11T06:51:02;9.90;99.90
25436;DHT22;13363;52.772;-3.890;2023-02-11T06:53:30;9.90;99.90
25436;DHT22;13363;52.772;-3.890;2023-02-11T06:55:55;9.90;99.90
25436;DHT22;13363;52.772;-3.890;2023-02-11T06:58:21;9.90;99.90
25436;DHT22;13363;52.772;-3.890;2023-02-11T07:00:47;9.80;99.90
25436;DHT22;13363;52.772;-3.890;2023-02-11T07:03:13;9.80;99.90
25436;DHT22;13363;52.772;-3.890;2023-02-11T07:05:42;9.80;99.90
25436;DHT22;13363;52.772;-3.890;2023-02-11T07:08:08;9.80;99.90
25436;DHT22;13363;52.772;-3.890;2023-02-11T07:10:34;9.80;99.90
25436;DHT22;13363;52.772;-3.890;2023-02-11T07:13:00;9.80;99.90
25436;DHT22;13363;52.772;-3.890;2023-02-11T07:15:25;9.80;99.90
25436;DHT22;13363;52.772;-3.890;2023-02-11T07:17:51;9.80;99.90
25436;DHT22;13363;52.772;-3.890;2023-02-11T07:20:17;9.80;99.90
25436;DHT22;13363;52.772;-3.890;2023-02-11T07:22:43;10.00;99.90
25436;DHT22;13363;52.772;-3.890;2023-02-11T07:25:08;10.00;99.90
25436;DHT22;13363;52.772;-3.890;2023-02-11T07:27:34;9.90;99.90
25436;DHT22;13363;52.772;-3.890;2023-02-11T07:30:00;9.90;99.90
25436;DHT22;13363;52.772;-3.890;2023-02-11T07:32:26;9.90;99.90
25436;DHT22;13363;52.772;-3.890;2023-02-11T07:34:52;9.90;99.90
25436;DHT22;13363;52.772;-3.890;2023-02-11T07:37:18;9.90;99.90
25436;DHT22;13363;52.772;-3.890;2023-02-11T07:39:45;9.80;99.90
25436;DHT22;13363;52.772;-3.890;2023-02-11T07:42:11;10.00;99.90
25436;DHT22;13363;52.772;-3.890;2023-02-11T07:44:36;10.00;99.90
25436;DHT22;13363;52.772;-3.890;2023-02-11T07:47:02;9.90;99.90
25436;DHT22;13363;52.772;-3.890;2023-02-11T07:49:28;10.00;99.90
25436;DHT22;13363;52.772;-3.890;2023-02-11T07:51:54;10.00;99.90
25436;DHT22;13363;52.772;-3.890;2023-02-11T07:54:20;9.90;99.90
25436;DHT22;13363;52.772;-3.890;2023-02-11T07:56:46;10.00;99.90
25436;DHT22;13363;52.772;-3.890;2023-02-11T07:59:12;9.90;99.90
25436;DHT22;13363;52.772;-3.890;2023-02-11T08:01:38;9.90;99.90
25436;DHT22;13363;52.772;-3.890;2023-02-11T08:04:04;9.90;99.90
25436;DHT22;13363;52.772;-3.890;2023-02-11T08:06:32;9.90;99.90
25436;DHT22;13363;52.772;-3.890;2023-02-11T08:09:04;9.90;99.90
25436;DHT22;13363;52.772;-3.890;2023-02-11T08:11:30;9.80;99.90
25436;DHT22;13363;52.772;-3.890;2023-02-11T08:13:56;9.80;99.90
25436;DHT22;13363;52.772;-3.890;2023-02-11T08:16:24;9.90;99.90
25436;DHT22;13363;52.772;-3.890;2023-02-11T08:18:51;9.90;99.90
25436;DHT22;13363;52.772;-3.890;2023-02-11T08:21:18;10.00;99.90
25436;DHT22;13363;52.772;-3.890;2023-02-11T08:23:45;10.20;99.90
25436;DHT22;13363;52.772;-3.890;2023-02-11T08:26:13;10.30;99.90
25436;DHT22;13363;52.772;-3.890;2023-02-11T08:28:42;10.20;99.90
25436;DHT22;13363;52.772;-3.890;2023-02-11T08:31:13;10.20;99.90
25436;DHT22;13363;52.772;-3.890;2023-02-11T08:33:40;10.10;99.90
25436;DHT22;13363;52.772;-3.890;2023-02-11T08:36:11;10.10;99.90
25436;DHT22;13363;52.772;-3.890;2023-02-11T08:38:37;10.00;99.90
25436;DHT22;13363;52.772;-3.890;2023-02-11T08:41:04;10.10;99.90
25436;DHT22;13363;52.772;-3.890;2023-02-11T08:43:30;10.10;99.90
25436;DHT22;13363;52.772;-3.890;2023-02-11T08:45:58;10.20;99.90
25436;DHT22;13363;52.772;-3.890;2023-02-11T08:48:24;10.30;99.90
25436;DHT22;13363;52.772;-3.890;2023-02-11T08:50:50;10.20;99.90
25436;DHT22;13363;52.772;-3.890;2023-02-11T08:53:16;10.20;99.90
25436;DHT22;13363;52.772;-3.890;2023-02-11T08:55:53;10.20;99.90
25436;DHT22;13363;52.772;-3.890;2023-02-11T08:58:20;10.20;99.90
25436;DHT22;13363;52.772;-3.890;2023-02-11T09:00:47;10.20;99.90
25436;DHT22;13363;52.772;-3.890;2023-02-11T09:03:13;10.30;99.90
25436;DHT22;13363;52.772;-3.890;2023-02-11T09:05:46;10.40;99.90
25436;DHT22;13363;52.772;-3.890;2023-02-11T09:08:13;10.40;99.90
25436;DHT22;13363;52.772;-3.890;2023-02-11T09:10:39;10.40;99.90
25436;DHT22;13363;52.772;-3.890;2023-02-11T09:13:06;10.40;99.90
25436;DHT22;13363;52.772;-3.890;2023-02-11T09:15:32;10.40;99.90
25436;DHT22;13363;52.772;-3.890;2023-02-11T09:17:58;10.50;99.90
25436;DHT22;13363;52.772;-3.890;2023-02-11T09:20:24;10.50;99.90
25436;DHT22;13363;52.772;-3.890;2023-02-11T09:22:52;10.50;99.90
25436;DHT22;13363;52.772;-3.890;2023-02-11T09:25:18;10.50;99.90
25436;DHT22;13363;52.772;-3.890;2023-02-11T09:27:43;10.60;99.90
25436;DHT22;13363;52.772;-3.890;2023-02-11T09:30:10;10.60;99.90
25436;DHT22;13363;52.772;-3.890;2023-02-11T09:32:35;10.70;99.90
25436;DHT22;13363;52.772;-3.890;2023-02-11T09:35:01;10.80;99.90
25436;DHT22;13363;52.772;-3.890;2023-02-11T09:37:27;10.90;99.90
25436;DHT22;13363;52.772;-3.890;2023-02-11T09:39:53;11.00;99.90
25436;DHT22;13363;52.772;-3.890;2023-02-11T09:42:36;11.00;99.90
25436;DHT22;13363;52.772;-3.890;2023-02-11T09:45:10;11.10;99.90
25436;DHT22;13363;52.772;-3.890;2023-02-11T09:47:44;11.10;99.90
25436;DHT22;13363;52.772;-3.890;2023-02-11T09:50:17;11.20;99.90
25436;DHT22;13363;52.772;-3.890;2023-02-11T09:55:22;11.30;99.90
25436;DHT22;13363;52.772;-3.890;2023-02-11T09:57:51;11.30;99.90
25436;DHT22;13363;52.772;-3.890;2023-02-11T10:00:26;11.30;99.90
25436;DHT22;13363;52.772;-3.890;2023-02-11T10:22:40;11.30;99.90
25436;DHT22;13363;52.772;-3.890;2023-02-11T10:25:24;11.20;99.90
25436;DHT22;13363;52.772;-3.890;2023-02-11T10:27:51;11.20;99.90
25436;DHT22;13363;52.772;-3.890;2023-02-11T10:30:27;11.20;99.90
25436;DHT22;13363;52.772;-3.890;2023-02-11T10:33:03;11.20;99.90
25436;DHT22;13363;52.772;-3.890;2023-02-11T10:35:37;11.20;99.90
25436;DHT22;13363;52.772;-3.890;2023-02-11T10:38:03;11.20;99.90
25436;DHT22;13363;52.772;-3.890;2023-02-11T10:40:30;11.30;99.90
25436;DHT22;13363;52.772;-3.890;2023-02-11T10:43:02;11.20;99.90
25436;DHT22;13363;52.772;-3.890;2023-02-11T10:48:02;11.30;99.90
25436;DHT22;13363;52.772;-3.890;2023-02-11T10:50:31;11.30;99.90
25436;DHT22;13363;52.772;-3.890;2023-02-11T10:53:19;11.20;99.90
25436;DHT22;13363;52.772;-3.890;2023-02-11T10:55:56;11.20;99.90
25436;DHT22;13363;52.772;-3.890;2023-02-11T10:58:46;11.20;99.90
25436;DHT22;13363;52.772;-3.890;2023-02-11T11:01:11;11.20;99.90
25436;DHT22;13363;52.772;-3.890;2023-02-11T11:03:49;11.20;99.90
25436;DHT22;13363;52.772;-3.890;2023-02-11T11:06:15;11.30;99.90
25436;DHT22;13363;52.772;-3.890;2023-02-11T11:08:47;11.30;99.90
25436;DHT22;13363;52.772;-3.890;2023-02-11T11:11:19;11.30;99.90
25436;DHT22;13363;52.772;-3.890;2023-02-11T11:16:24;11.30;99.90
25436;DHT22;13363;52.772;-3.890;2023-02-11T11:21:47;11.30;99.90
25436;DHT22;13363;52.772;-3.890;2023-02-11T11:24:39;11.30;99.90
25436;DHT22;13363;52.772;-3.890;2023-02-11T11:27:15;11.30;99.90
25436;DHT22;13363;52.772;-3.890;2023-02-11T11:29:50;11.30;99.90
25436;DHT22;13363;52.772;-3.890;2023-02-11T11:32:23;11.30;99.90
25436;DHT22;13363;52.772;-3.890;2023-02-11T11:34:55;11.40;99.90
25436;DHT22;13363;52.772;-3.890;2023-02-11T11:37:38;11.40;99.90
25436;DHT22;13363;52.772;-3.890;2023-02-11T11:40:08;11.30;99.90
25436;DHT22;13363;52.772;-3.890;2023-02-11T11:42:36;11.40;99.90
25436;DHT22;13363;52.772;-3.890;2023-02-11T11:55:35;11.60;99.90
25436;DHT22;13363;52.772;-3.890;2023-02-11T11:58:03;11.60;99.90
25436;DHT22;13363;52.772;-3.890;2023-02-11T12:00:46;11.60;99.90
25436;DHT22;13363;52.772;-3.890;2023-02-11T12:09:19;11.60;99.90
25436;DHT22;13363;52.772;-3.890;2023-02-11T12:11:56;11.60;99.90
25436;DHT22;13363;52.772;-3.890;2023-02-11T12:17:05;11.60;99.90
25436;DHT22;13363;52.772;-3.890;2023-02-11T12:28:01;11.70;99.90
25436;DHT22;13363;52.772;-3.890;2023-02-11T12:30:47;11.80;99.90
25436;DHT22;13363;52.772;-3.890;2023-02-11T12:33:33;11.80;99.90
25436;DHT22;13363;52.772;-3.890;2023-02-11T12:50:12;12.00;99.90
25436;DHT22;13363;52.772;-3.890;2023-02-11T12:55:28;12.10;99.90
25436;DHT22;13363;52.772;-3.890;2023-02-11T12:57:57;12.00;99.90
25436;DHT22;13363;52.772;-3.890;2023-02-11T13:00:44;12.00;99.90
25436;DHT22;13363;52.772;-3.890;2023-02-11T13:03:24;12.10;99.90
25436;DHT22;13363;52.772;-3.890;2023-02-11T13:05:54;12.10;99.90
25436;DHT22;13363;52.772;-3.890;2023-02-11T13:08:24;12.20;99.90
25436;DHT22;13363;52.772;-3.890;2023-02-11T13:10:56;12.20;99.90
25436;DHT22;13363;52.772;-3.890;2023-02-11T13:14:01;12.20;99.90
25436;DHT22;13363;52.772;-3.890;2023-02-11T13:21:50;12.10;99.90
25436;DHT22;13363;52.772;-3.890;2023-02-11T13:24:45;12.10;99.90
25436;DHT22;13363;52.772;-3.890;2023-02-11T13:30:32;12.10;99.90
25436;DHT22;13363;52.772;-3.890;2023-02-11T13:37:55;12.30;99.90
25436;DHT22;13363;52.772;-3.890;2023-02-11T13:40:25;12.30;99.90
25436;DHT22;13363;52.772;-3.890;2023-02-11T13:42:57;12.30;99.90
25436;DHT22;13363;52.772;-3.890;2023-02-11T13:48:02;12.30;99.90
25436;DHT22;13363;52.772;-3.890;2023-02-11T13:50:28;12.20;99.90
25436;DHT22;13363;52.772;-3.890;2023-02-11T13:53:00;12.10;99.90
25436;DHT22;13363;52.772;-3.890;2023-02-11T13:55:27;12.10;99.90
25436;DHT22;13363;52.772;-3.890;2023-02-11T14:00:51;12.00;99.90
25436;DHT22;13363;52.772;-3.890;2023-02-11T14:03:24;12.00;99.90
25436;DHT22;13363;52.772;-3.890;2023-02-11T14:11:47;12.10;99.90
25436;DHT22;13363;52.772;-3.890;2023-02-11T14:19:34;12.30;99.90
25436;DHT22;13363;52.772;-3.890;2023-02-11T14:41:05;12.30;99.90
25436;DHT22;13363;52.772;-3.890;2023-02-11T14:43:44;12.30;99.90
25436;DHT22;13363;52.772;-3.890;2023-02-11T14:46:14;12.20;99.90
25436;DHT22;13363;52.772;-3.890;2023-02-11T14:48:47;12.20;99.90
25436;DHT22;13363;52.772;-3.890;2023-02-11T14:54:36;12.10;99.90
25436;DHT22;13363;52.772;-3.890;2023-02-11T14:57:16;12.10;99.90
25436;DHT22;13363;52.772;-3.890;2023-02-11T15:00:00;12.10;99.90
25436;DHT22;13363;52.772;-3.890;2023-02-11T15:02:35;12.20;99.90
25436;DHT22;13363;52.772;-3.890;2023-02-11T15:07:49;12.20;99.90
25436;DHT22;13363;52.772;-3.890;2023-02-11T15:10:32;12.20;99.90
25436;DHT22;13363;52.772;-3.890;2023-02-11T15:13:00;12.10;99.90
25436;DHT22;13363;52.772;-3.890;2023-02-11T15:15:28;12.10;99.90
25436;DHT22;13363;52.772;-3.890;2023-02-11T15:17:56;12.10;99.90
25436;DHT22;13363;52.772;-3.890;2023-02-11T15:20:29;12.00;99.90
25436;DHT22;13363;52.772;-3.890;2023-02-11T15:23:07;12.10;99.90
25436;DHT22;13363;52.772;-3.890;2023-02-11T15:25:45;12.00;99.90
25436;DHT22;13363;52.772;-3.890;2023-02-11T15:28:26;12.00;99.90
25436;DHT22;13363;52.772;-3.890;2023-02-11T15:31:15;12.00;99.90
25436;DHT22;13363;52.772;-3.890;2023-02-11T15:33:42;12.00;99.90
25436;DHT22;13363;52.772;-3.890;2023-02-11T15:36:11;12.00;99.90
25436;DHT22;13363;52.772;-3.890;2023-02-11T15:38:38;12.00;99.90
25436;DHT22;13363;52.772;-3.890;2023-02-11T15:41:06;11.90;99.90
25436;DHT22;13363;52.772;-3.890;2023-02-11T15:43:47;11.90;99.90
25436;DHT22;13363;52.772;-3.890;2023-02-11T15:46:16;11.90;99.90
25436;DHT22;13363;52.772;-3.890;2023-02-11T15:48:45;11.90;99.90
25436;DHT22;13363;52.772;-3.890;2023-02-11T15:51:31;11.90;99.90
25436;DHT22;13363;52.772;-3.890;2023-02-11T15:54:16;11.80;99.90
25436;DHT22;13363;52.772;-3.890;2023-02-11T15:56:45;11.80;99.90
25436;DHT22;13363;52.772;-3.890;2023-02-11T15:59:18;11.80;99.90
25436;DHT22;13363;52.772;-3.890;2023-02-11T16:01:46;11.80;99.90
25436;DHT22;13363;52.772;-3.890;2023-02-11T16:04:21;11.70;99.90
25436;DHT22;13363;52.772;-3.890;2023-02-11T16:06:49;11.80;99.90
25436;DHT22;13363;52.772;-3.890;2023-02-11T16:16:50;11.70;99.90
25436;DHT22;13363;52.772;-3.890;2023-02-11T16:19:18;11.60;99.90
25436;DHT22;13363;52.772;-3.890;2023-02-11T16:21:45;11.60;99.90
25436;DHT22;13363;52.772;-3.890;2023-02-11T16:24:31;11.50;99.90
25436;DHT22;13363;52.772;-3.890;2023-02-11T16:27:03;11.50;99.90
25436;DHT22;13363;52.772;-3.890;2023-02-11T16:29:31;11.40;99.90
25436;DHT22;13363;52.772;-3.890;2023-02-11T16:32:14;11.40;99.90
25436;DHT22;13363;52.772;-3.890;2023-02-11T16:34:40;11.40;99.90
25436;DHT22;13363;52.772;-3.890;2023-02-11T16:37:06;11.40;99.90
25436;DHT22;13363;52.772;-3.890;2023-02-11T16:39:32;11.30;99.90
25436;DHT22;13363;52.772;-3.890;2023-02-11T16:41:59;11.30;99.90
25436;DHT22;13363;52.772;-3.890;2023-02-11T16:44:25;11.30;99.90
25436;DHT22;13363;52.772;-3.890;2023-02-11T16:46:51;11.30;99.90
25436;DHT22;13363;52.772;-3.890;2023-02-11T16:49:29;11.20;99.90
25436;DHT22;13363;52.772;-3.890;2023-02-11T16:51:59;11.10;99.90
25436;DHT22;13363;52.772;-3.890;2023-02-11T16:54:28;11.10;99.90
25436;DHT22;13363;52.772;-3.890;2023-02-11T16:56:54;11.00;99.90
25436;DHT22;13363;52.772;-3.890;2023-02-11T16:59:20;11.00;99.90
25436;DHT22;13363;52.772;-3.890;2023-02-11T17:01:47;10.90;99.90
25436;DHT22;13363;52.772;-3.890;2023-02-11T17:04:20;10.90;99.90
25436;DHT22;13363;52.772;-3.890;2023-02-11T17:06:46;10.80;99.90
25436;DHT22;13363;52.772;-3.890;2023-02-11T17:09:20;10.80;99.90
25436;DHT22;13363;52.772;-3.890;2023-02-11T17:11:47;10.80;99.90
25436;DHT22;13363;52.772;-3.890;2023-02-11T17:14:14;10.80;99.90
25436;DHT22;13363;52.772;-3.890;2023-02-11T17:16:41;10.70;99.90
25436;DHT22;13363;52.772;-3.890;2023-02-11T17:19:10;10.70;99.90
25436;DHT22;13363;52.772;-3.890;2023-02-11T17:21:36;10.70;99.90
25436;DHT22;13363;52.772;-3.890;2023-02-11T17:24:02;10.70;99.90
25436;DHT22;13363;52.772;-3.890;2023-02-11T17:26:28;10.60;99.90
25436;DHT22;13363;52.772;-3.890;2023-02-11T17:28:53;10.60;99.90
25436;DHT22;13363;52.772;-3.890;2023-02-11T17:31:19;10.60;99.90
25436;DHT22;13363;52.772;-3.890;2023-02-11T17:33:45;10.60;99.90
25436;DHT22;13363;52.772;-3.890;2023-02-11T17:36:12;10.60;99.90
25436;DHT22;13363;52.772;-3.890;2023-02-11T17:38:38;10.60;99.90
25436;DHT22;13363;52.772;-3.890;2023-02-11T17:41:04;10.50;99.90
25436;DHT22;13363;52.772;-3.890;2023-02-11T17:43:31;10.50;99.90
25436;DHT22;13363;52.772;-3.890;2023-02-11T17:45:57;10.50;99.90
25436;DHT22;13363;52.772;-3.890;2023-02-11T17:48:23;10.40;99.90
25436;DHT22;13363;52.772;-3.890;2023-02-11T17:50:49;10.40;99.90
25436;DHT22;13363;52.772;-3.890;2023-02-11T17:53:15;10.40;99.90
25436;DHT22;13363;52.772;-3.890;2023-02-11T17:55:41;10.30;99.90
25436;DHT22;13363;52.772;-3.890;2023-02-11T17:58:07;10.30;99.90
25436;DHT22;13363;52.772;-3.890;2023-02-11T18:00:32;10.20;99.90
25436;DHT22;13363;52.772;-3.890;2023-02-11T18:02:58;10.30;99.90
25436;DHT22;13363;52.772;-3.890;2023-02-11T18:05:35;10.30;99.90
25436;DHT22;13363;52.772;-3.890;2023-02-11T18:08:03;10.20;99.90
25436;DHT22;13363;52.772;-3.890;2023-02-11T18:10:29;10.20;99.90
25436;DHT22;13363;52.772;-3.890;2023-02-11T18:12:55;10.20;99.90
25436;DHT22;13363;52.772;-3.890;2023-02-11T18:15:21;10.20;99.90
25436;DHT22;13363;52.772;-3.890;2023-02-11T18:17:48;10.20;99.90
25436;DHT22;13363;52.772;-3.890;2023-02-11T18:20:14;10.20;99.90
25436;DHT22;13363;52.772;-3.890;2023-02-11T18:22:40;10.20;99.90